Main page
METAR-TAF:

METAR-TAF

Airports :

Exeter, England

Exeter Airport

latitude: 50-44N, longitude: 003-25W, elevation: 30 m

Current weather observation

The report was made 13 minutes ago, at 13:20 UTC
Wind 14 kt from the West, varying between West/Southwest and West/Northwest
Temperature 14°C
Humidity 67%
Pressure 1018 hPa
Visibility 10 km or more
Scattered clouds at a height of 2500 ft

METAR: EGTE 221320Z 27014KT 240V300 9999 SCT025 14/08 Q1018

Time: 14:33 (13:33 UTC)

Forecast

The report was made 2 hours and 36 minutes ago, at 10:57 UTC
Forecast valid from 22 at 12 UTC to 22 at 21 UTC
Wind 13 kt from the West
Visibility 10 km or more
Scattered clouds at a height of 2500 ft
Temporary
from 22 at 12 UTC to 22 at 15 UTC
Wind 16 kt from the West with gusts up to 26 kt
Visibility: 8000 m
rain showers

TAF: EGTE 221057Z 2212/2221 28013KT 9999 SCT025 TEMPO 2212/2215 28016G26KT 8000 SHRA

Weather observations and forecasts of more than 4000 airports (METAR and TAF reports).

The available stations are represented by yellow and red dots on the map.

Hover mouse over dot to see the name of the station.

Then click to see weather observations and forecasts.

To change the map : click on the green buttons with a black cross to zoom in, on the green button with a dash to zoom out, or on the green arrows for adjacent maps.


METAR-TAF: